Time;durP1;ratioP1;P1;durP2;ratioP2;P2;SDS_P1;SDS_P2;PMS_P1;PMS_P2;Temp;Humidity;BMP_temperature;BMP_pressure;BME280_temperature;BME280_humidity;BME280_pressure;Samples;Min_cycle;Max_cycle;Signal;HPM_P1;HPM_P2
2022/03/22 00:00:16;;;;;;;14.98;8.05;;;9.60;88.30;;;;;;5043044;28;20534;-70
2022/03/22 00:02:42;;;;;;;17.13;9.27;;;9.60;87.50;;;;;;5045942;28;20096;-70
2022/03/22 00:05:08;;;;;;;14.25;8.02;;;9.60;87.00;;;;;;5045207;28;20068;-70
2022/03/22 00:07:34;;;;;;;12.57;8.13;;;9.70;85.90;;;;;;5042321;28;20067;-71
2022/03/22 00:10:00;;;;;;;15.45;8.07;;;9.70;86.80;;;;;;5043530;28;20375;-70
2022/03/22 00:12:26;;;;;;;12.30;7.70;;;9.70;86.00;;;;;;5043320;28;20428;-70
2022/03/22 00:14:52;;;;;;;13.27;8.93;;;9.60;86.00;;;;;;5044536;28;20068;-71
2022/03/22 00:17:17;;;;;;;10.82;7.38;;;9.60;86.70;;;;;;5045933;28;20394;-70
2022/03/22 00:19:43;;;;;;;11.98;8.40;;;9.60;86.80;;;;;;5043295;28;20041;-70
2022/03/22 00:22:11;;;;;;;12.93;8.48;;;9.50;86.10;;;;;;5043454;28;20029;-70
2022/03/22 00:24:38;;;;;;;13.43;8.20;;;9.50;86.40;;;;;;5042789;28;20021;-70
2022/03/22 00:27:04;;;;;;;10.98;8.30;;;9.50;85.50;;;;;;5042388;28;20087;-70
2022/03/22 00:29:29;;;;;;;13.52;8.52;;;9.50;85.30;;;;;;5043560;28;20475;-70
2022/03/22 00:31:56;;;;;;;12.52;8.13;;;9.50;84.40;;;;;;5044970;28;20033;-70
2022/03/22 00:34:23;;;;;;;12.30;7.63;;;9.40;85.20;;;;;;5042541;28;20048;-70
2022/03/22 00:36:50;;;;;;;11.93;8.10;;;9.40;85.10;;;;;;5035659;28;20116;-70
2022/03/22 00:39:16;;;;;;;10.75;7.95;;;9.40;85.80;;;;;;5041431;28;20049;-70
2022/03/22 00:41:42;;;;;;;12.63;7.97;;;9.40;84.70;;;;;;5044586;28;20076;-70
2022/03/22 00:44:08;;;;;;;14.65;8.18;;;9.40;84.10;;;;;;5045997;28;20037;-70
2022/03/22 00:46:36;;;;;;;13.75;8.82;;;9.50;83.60;;;;;;5042274;28;20183;-71
2022/03/22 00:49:03;;;;;;;12.60;8.23;;;9.50;83.70;;;;;;5042020;28;20485;-70
2022/03/22 00:51:30;;;;;;;13.60;8.00;;;9.50;84.10;;;;;;5042372;28;20036;-70
2022/03/22 00:53:59;;;;;;;15.73;9.30;;;9.50;84.00;;;;;;5042841;28;20211;-70
2022/03/22 00:56:25;;;;;;;12.68;7.93;;;9.40;84.30;;;;;;5046093;28;20162;-70
2022/03/22 01:00:01;;;;;;;13.10;8.18;;;9.40;84.10;;;;;;5041666;28;20025;-71
2022/03/22 01:01:36;;;;;;;10.93;7.78;;;9.30;83.60;;;;;;5044546;28;20049;-70
2022/03/22 01:04:04;;;;;;;12.15;7.43;;;9.40;83.30;;;;;;5042045;28;20143;-70
2022/03/22 01:06:30;;;;;;;11.73;8.10;;;9.40;82.40;;;;;;5047695;28;20409;-70
2022/03/22 01:08:56;;;;;;;11.57;7.75;;;9.40;82.30;;;;;;5049469;28;20025;-70
2022/03/22 01:11:22;;;;;;;12.00;7.70;;;9.40;82.20;;;;;;5052604;28;20055;-70
2022/03/22 01:13:48;;;;;;;12.82;7.78;;;9.40;82.00;;;;;;5041559;28;20075;-70
2022/03/22 01:16:15;;;;;;;11.80;7.43;;;9.30;82.70;;;;;;5046339;28;20045;-70
2022/03/22 01:18:41;;;;;;;10.68;7.40;;;9.30;81.30;;;;;;5048845;28;20036;-70
2022/03/22 01:21:08;;;;;;;11.60;7.85;;;9.40;81.70;;;;;;5045690;28;20032;-70
2022/03/22 01:23:34;;;;;;;10.57;7.43;;;9.30;81.30;;;;;;5044150;28;20021;-70
2022/03/22 01:26:00;;;;;;;11.27;7.85;;;9.20;81.80;;;;;;5046721;28;20027;-70
2022/03/22 01:28:26;;;;;;;11.57;7.75;;;9.30;80.90;;;;;;5045928;28;20033;-70
2022/03/22 01:30:53;;;;;;;13.68;7.20;;;9.30;80.80;;;;;;5051657;28;20061;-70
2022/03/22 01:33:18;;;;;;;11.43;7.30;;;9.30;80.50;;;;;;5049797;28;20496;-70
2022/03/22 01:35:44;;;;;;;14.82;7.57;;;9.30;79.00;;;;;;5044481;28;20072;-70
2022/03/22 01:38:10;;;;;;;14.00;8.00;;;9.40;81.10;;;;;;5044974;28;20029;-70
2022/03/22 01:40:37;;;;;;;10.88;7.00;;;9.30;80.60;;;;;;5044448;28;20069;-70
2022/03/22 01:43:03;;;;;;;11.60;7.50;;;9.30;81.30;;;;;;5049182;28;20028;-70
2022/03/22 01:45:29;;;;;;;11.65;7.65;;;9.20;79.90;;;;;;5047901;28;20449;-70
2022/03/22 01:47:58;;;;;;;13.38;8.13;;;9.40;81.00;;;;;;5044915;28;20100;-70
2022/03/22 01:50:24;;;;;;;13.43;7.95;;;9.40;78.80;;;;;;5043889;28;20405;-70
2022/03/22 01:52:50;;;;;;;11.50;7.90;;;9.40;79.20;;;;;;5044663;28;20221;-70
2022/03/22 01:55:19;;;;;;;11.45;7.57;;;9.40;80.70;;;;;;5047082;28;20037;-70
2022/03/22 01:57:46;;;;;;;10.73;7.68;;;9.30;78.50;;;;;;5049427;28;20029;-70
2022/03/22 02:00:18;;;;;;;11.30;7.70;;;9.40;80.40;;;;;;5046109;28;20568;-70
2022/03/22 02:05:55;;;;;;;12.02;8.07;;;9.30;79.10;;;;;;5048028;28;20043;-69
2022/03/22 02:08:29;;;;;;;11.63;7.68;;;9.40;78.30;;;;;;5042575;28;20489;-70
2022/03/22 02:10:58;;;;;;;14.70;8.80;;;9.40;80.20;;;;;;5051662;28;20061;-70
2022/03/22 02:13:23;;;;;;;11.90;8.57;;;9.30;79.60;;;;;;5049530;28;20025;-70
2022/03/22 02:15:52;;;;;;;14.45;8.98;;;9.30;81.10;;;;;;5046304;28;20055;-70
2022/03/22 02:18:18;;;;;;;13.25;8.50;;;9.30;80.60;;;;;;5054218;28;20484;-70
2022/03/22 02:20:45;;;;;;;11.25;8.30;;;9.40;81.10;;;;;;5043890;28;20059;-70
2022/03/22 02:23:17;;;;;;;13.90;7.93;;;9.40;80.80;;;;;;5045159;28;20083;-70
2022/03/22 02:25:42;;;;;;;13.30;8.25;;;9.40;81.10;;;;;;5051558;28;20508;-70
2022/03/22 02:28:10;;;;;;;11.40;7.30;;;9.40;80.40;;;;;;5047506;28;20058;-70
2022/03/22 02:30:37;;;;;;;13.00;8.13;;;9.40;81.80;;;;;;5047331;28;20027;-70
2022/03/22 02:33:03;;;;;;;11.57;7.18;;;9.30;80.60;;;;;;5044706;28;20067;-70
2022/03/22 02:35:30;;;;;;;13.68;8.10;;;9.30;81.30;;;;;;5043083;28;20049;-70
2022/03/22 02:37:57;;;;;;;13.65;7.47;;;9.40;82.30;;;;;;5041853;28;20429;-70
2022/03/22 02:40:26;;;;;;;14.32;8.50;;;9.30;82.00;;;;;;5045650;28;20048;-70
2022/03/22 02:42:54;;;;;;;11.52;8.60;;;9.30;82.60;;;;;;5048107;28;20032;-70
2022/03/22 02:45:21;;;;;;;11.82;7.65;;;9.30;81.10;;;;;;5043835;28;20040;-70
2022/03/22 02:47:47;;;;;;;11.98;8.00;;;9.30;82.30;;;;;;5043699;28;20029;-70
2022/03/22 02:50:13;;;;;;;12.63;8.45;;;9.30;82.00;;;;;;5042324;28;20516;-70
2022/03/22 02:52:40;;;;;;;11.93;8.23;;;9.30;82.20;;;;;;5043660;28;20014;-70
2022/03/22 02:55:07;;;;;;;10.00;7.70;;;9.30;82.00;;;;;;5050526;28;20045;-70
2022/03/22 02:57:34;;;;;;;13.13;8.00;;;9.40;81.70;;;;;;5048685;28;20036;-70
2022/03/22 03:00:02;;;;;;;11.07;7.88;;;9.30;80.90;;;;;;5046020;28;20503;-70
2022/03/22 03:02:29;;;;;;;13.93;8.68;;;9.30;82.30;;;;;;5047110;28;20099;-70
2022/03/22 03:04:54;;;;;;;13.90;8.13;;;9.30;83.00;;;;;;5044678;28;20044;-70
2022/03/22 03:07:20;;;;;;;11.73;7.90;;;9.20;83.80;;;;;;5049027;28;20648;-70
2022/03/22 03:09:46;;;;;;;13.88;8.98;;;9.10;83.30;;;;;;5050527;28;20545;-70
2022/03/22 03:12:11;;;;;;;11.82;8.50;;;9.10;83.60;;;;;;5044103;28;20033;-70
2022/03/22 03:14:40;;;;;;;13.57;8.38;;;9.10;83.20;;;;;;5051042;28;20440;-70
2022/03/22 03:17:12;;;;;;;13.57;8.05;;;9.20;82.70;;;;;;5051301;28;20029;-70
2022/03/22 03:19:37;;;;;;;14.88;8.27;;;9.30;82.10;;;;;;5051382;28;20099;-70
2022/03/22 03:22:04;;;;;;;11.10;7.80;;;9.30;82.50;;;;;;5051516;28;20025;-70
2022/03/22 03:24:32;;;;;;;14.43;9.10;;;9.30;82.70;;;;;;5051891;28;20021;-70
2022/03/22 03:26:58;;;;;;;13.80;8.45;;;9.30;83.50;;;;;;5043583;28;20449;-70
2022/03/22 03:29:24;;;;;;;12.55;8.73;;;9.20;82.90;;;;;;5051218;28;20507;-70
2022/03/22 03:31:50;;;;;;;13.13;8.63;;;9.20;82.90;;;;;;5051757;28;20033;-70
2022/03/22 03:34:16;;;;;;;14.13;9.10;;;9.30;84.00;;;;;;5050836;28;20485;-69
2022/03/22 03:36:42;;;;;;;12.88;8.23;;;9.20;82.70;;;;;;5051163;28;20021;-70
2022/03/22 03:39:09;;;;;;;16.60;8.52;;;9.20;83.40;;;;;;5051900;28;20106;-70
2022/03/22 03:41:53;;;;;;;12.77;8.60;;;9.20;84.90;;;;;;5050640;28;20025;-70
2022/03/22 03:47:11;;;;;;;10.07;7.30;;;9.10;83.70;;;;;;5051943;28;20168;-70
2022/03/22 03:49:40;;;;;;;13.70;8.38;;;9.10;83.50;;;;;;5051129;28;20481;-70
2022/03/22 03:52:07;;;;;;;11.95;8.40;;;9.20;84.20;;;;;;5051386;28;20059;-70
2022/03/22 03:54:34;;;;;;;11.23;7.63;;;9.20;85.00;;;;;;5051420;28;20079;-70
2022/03/22 03:57:00;;;;;;;14.52;8.90;;;9.20;83.50;;;;;;5051174;28;20052;-70
2022/03/22 03:59:26;;;;;;;13.18;8.07;;;9.10;84.00;;;;;;5045956;28;20417;-70
2022/03/22 04:01:53;;;;;;;11.35;8.02;;;9.20;84.40;;;;;;5051639;28;20045;-70
2022/03/22 04:04:19;;;;;;;11.57;7.65;;;9.20;84.40;;;;;;5054582;28;20496;-70
2022/03/22 04:06:45;;;;;;;13.30;7.68;;;9.20;84.60;;;;;;5054906;28;20425;-70
2022/03/22 04:09:11;;;;;;;13.32;8.70;;;9.20;83.60;;;;;;5054849;28;20029;-70
2022/03/22 04:11:38;;;;;;;15.60;8.23;;;9.20;83.80;;;;;;5054209;28;20143;-70
2022/03/22 04:14:04;;;;;;;10.93;7.53;;;9.20;84.10;;;;;;5054158;28;20444;-70
2022/03/22 04:16:30;;;;;;;12.27;8.40;;;9.20;84.90;;;;;;5054829;28;20527;-70
2022/03/22 04:18:56;;;;;;;13.23;8.10;;;9.20;83.70;;;;;;5054423;28;20422;-70
2022/03/22 04:21:21;;;;;;;12.68;8.27;;;9.30;83.70;;;;;;5055114;28;20064;-70
2022/03/22 04:23:47;;;;;;;13.48;8.70;;;9.30;84.00;;;;;;5054656;28;20112;-70
2022/03/22 04:26:13;;;;;;;12.32;8.38;;;9.20;85.50;;;;;;5054102;28;20113;-70
2022/03/22 04:34:07;;;;;;;14.88;8.80;;;9.10;84.00;;;;;;5054359;28;20562;-69
2022/03/22 04:36:33;;;;;;;15.10;8.48;;;9.10;84.50;;;;;;5053003;28;20033;-70
2022/03/22 04:38:59;;;;;;;13.68;8.27;;;9.00;85.10;;;;;;5054465;28;20032;-70
2022/03/22 04:41:25;;;;;;;12.27;8.70;;;9.10;84.90;;;;;;5053787;28;20029;-70
2022/03/22 04:43:51;;;;;;;12.00;8.63;;;9.10;85.10;;;;;;5054167;28;20052;-70
2022/03/22 04:46:18;;;;;;;14.32;8.30;;;9.10;84.90;;;;;;5052376;28;20107;-70
2022/03/22 04:48:47;;;;;;;13.18;8.82;;;9.10;84.20;;;;;;5055096;28;20100;-70
2022/03/22 04:56:48;;;;;;;15.80;8.95;;;9.00;85.10;;;;;;5054038;28;20091;-70
2022/03/22 04:59:19;;;;;;;12.05;9.00;;;8.90;85.40;;;;;;5051369;28;20065;-70
2022/03/22 05:01:45;;;;;;;14.65;8.85;;;8.90;85.20;;;;;;5054641;28;20505;-70
2022/03/22 05:04:12;;;;;;;16.55;9.80;;;8.90;85.40;;;;;;5053762;28;20029;-70
2022/03/22 05:06:41;;;;;;;15.95;9.73;;;8.90;85.60;;;;;;5053191;28;20031;-70
2022/03/22 05:09:08;;;;;;;14.43;9.07;;;8.90;86.40;;;;;;5047235;28;20096;-70
2022/03/22 05:11:34;;;;;;;13.13;9.55;;;8.80;87.00;;;;;;5045036;28;20072;-70
2022/03/22 05:14:00;;;;;;;14.50;9.68;;;8.80;86.80;;;;;;5049983;28;20436;-70
2022/03/22 05:16:26;;;;;;;12.10;9.35;;;8.80;87.80;;;;;;5046130;28;20025;-70
2022/03/22 05:18:53;;;;;;;12.45;9.55;;;8.80;87.20;;;;;;5048798;28;20505;-70
2022/03/22 05:21:19;;;;;;;14.13;9.88;;;8.70;87.10;;;;;;5045040;28;20041;-70
2022/03/22 05:23:45;;;;;;;15.55;10.40;;;8.70;88.00;;;;;;5045474;28;20013;-70
2022/03/22 05:26:12;;;;;;;16.60;10.35;;;8.60;87.40;;;;;;5050956;28;20029;-70
2022/03/22 05:28:39;;;;;;;14.48;10.40;;;8.60;88.10;;;;;;5048544;28;20108;-70
2022/03/22 05:31:05;;;;;;;16.48;10.27;;;8.60;88.90;;;;;;5050829;28;20072;-70
2022/03/22 05:33:32;;;;;;;14.65;9.65;;;8.60;88.60;;;;;;5046756;28;20025;-69
2022/03/22 05:35:58;;;;;;;18.17;10.35;;;8.60;88.10;;;;;;5045018;28;20028;-70
2022/03/22 05:38:26;;;;;;;15.85;9.77;;;8.60;88.50;;;;;;5044098;28;20033;-69
2022/03/22 05:40:53;;;;;;;12.43;9.75;;;8.50;88.90;;;;;;5047931;28;20069;-70
2022/03/22 05:43:20;;;;;;;17.65;9.93;;;8.50;89.10;;;;;;5049476;28;20029;-69
2022/03/22 05:45:48;;;;;;;14.40;9.10;;;8.50;90.10;;;;;;5043975;28;20390;-70
2022/03/22 05:48:21;;;;;;;14.23;9.95;;;8.50;89.70;;;;;;5044733;28;20492;-70
2022/03/22 05:50:47;;;;;;;14.55;10.50;;;8.50;89.90;;;;;;5043483;28;20020;-70
2022/03/22 05:53:13;;;;;;;15.18;11.93;;;8.50;90.40;;;;;;5043803;28;20120;-70
2022/03/22 05:55:41;;;;;;;17.00;13.00;;;8.40;91.20;;;;;;5048709;28;20026;-70
2022/03/22 05:58:08;;;;;;;21.83;12.43;;;8.20;92.10;;;;;;5050333;28;20041;-70
2022/03/22 06:00:34;;;;;;;14.75;11.25;;;8.20;92.20;;;;;;5052585;28;20025;-69
2022/03/22 06:03:00;;;;;;;17.52;12.45;;;8.10;92.60;;;;;;5045678;28;20451;-69
2022/03/22 06:05:28;;;;;;;15.25;10.88;;;8.10;93.30;;;;;;5042244;28;20403;-70
2022/03/22 06:07:55;;;;;;;14.98;10.82;;;8.20;92.10;;;;;;5047201;28;20477;-70
2022/03/22 06:10:22;;;;;;;15.15;10.70;;;8.20;91.90;;;;;;5047954;28;20079;-70
2022/03/22 06:12:51;;;;;;;20.20;11.27;;;8.40;92.10;;;;;;5045955;28;20033;-70
2022/03/22 06:15:28;;;;;;;15.43;11.25;;;8.40;91.90;;;;;;5050048;28;20033;-70
2022/03/22 06:18:00;;;;;;;16.45;12.25;;;8.50;92.00;;;;;;5047111;28;20028;-70
2022/03/22 06:20:43;;;;;;;18.83;12.82;;;8.50;92.30;;;;;;5038736;28;20453;-70
2022/03/22 06:23:11;;;;;;;17.00;11.75;;;8.50;92.90;;;;;;5048343;28;20489;-70
2022/03/22 06:25:38;;;;;;;16.25;11.65;;;8.50;92.20;;;;;;5044180;28;20025;-70
2022/03/22 06:28:06;;;;;;;17.20;12.15;;;8.50;92.30;;;;;;5065436;28;20448;-70
2022/03/22 06:30:34;;;;;;;15.07;11.40;;;8.60;92.30;;;;;;5043521;28;20055;-70
2022/03/22 06:33:06;;;;;;;18.20;13.18;;;8.60;92.10;;;;;;5047773;28;20021;-70
2022/03/22 06:35:33;;;;;;;18.95;14.43;;;8.60;93.20;;;;;;5042075;28;20044;-70
2022/03/22 06:38:00;;;;;;;20.33;13.32;;;8.60;93.40;;;;;;5046284;28;20017;-70
2022/03/22 06:40:29;;;;;;;19.00;14.13;;;8.40;93.50;;;;;;5046423;28;20497;-70
2022/03/22 06:42:58;;;;;;;18.65;14.20;;;8.40;94.20;;;;;;5047285;28;20079;-70
2022/03/22 06:45:24;;;;;;;17.08;12.25;;;8.40;94.40;;;;;;5051064;28;20481;-69
2022/03/22 06:47:51;;;;;;;16.98;11.45;;;8.60;94.40;;;;;;5043942;28;24179;-70
2022/03/22 06:50:18;;;;;;;15.90;10.48;;;8.70;93.20;;;;;;5046494;28;20112;-72
2022/03/22 06:52:44;;;;;;;15.52;10.40;;;8.90;92.90;;;;;;5045821;28;20371;-70
2022/03/22 06:55:12;;;;;;;20.02;11.82;;;9.10;92.60;;;;;;5044796;28;20021;-71
2022/03/22 06:57:38;;;;;;;19.33;10.80;;;9.20;92.60;;;;;;5049621;28;20078;-71
2022/03/22 07:00:08;;;;;;;19.25;11.23;;;9.30;92.80;;;;;;5044760;28;20032;-71
2022/03/22 07:02:35;;;;;;;16.33;11.10;;;9.40;92.60;;;;;;5043239;28;20045;-71
2022/03/22 07:05:02;;;;;;;16.65;11.18;;;9.40;93.30;;;;;;5044796;28;20029;-71
2022/03/22 07:07:28;;;;;;;18.77;13.32;;;9.50;92.90;;;;;;5042582;28;20026;-71
2022/03/22 07:09:54;;;;;;;18.92;13.27;;;9.50;93.90;;;;;;5046633;28;20072;-71
2022/03/22 07:12:19;;;;;;;17.05;13.27;;;9.50;93.60;;;;;;5045829;28;20052;-71
2022/03/22 07:14:45;;;;;;;19.33;13.75;;;9.60;94.50;;;;;;5044009;28;20402;-70
2022/03/22 07:17:11;;;;;;;19.58;14.75;;;9.60;94.00;;;;;;5043593;28;20033;-70
2022/03/22 07:19:38;;;;;;;24.15;15.68;;;9.50;95.30;;;;;;5042038;28;20116;-71
2022/03/22 07:22:05;;;;;;;23.65;15.70;;;9.30;96.10;;;;;;5041911;28;20017;-71
2022/03/22 07:24:31;;;;;;;26.15;16.65;;;9.20;96.20;;;;;;5049766;28;20382;-71
2022/03/22 07:26:57;;;;;;;20.80;15.30;;;9.20;97.00;;;;;;5044502;28;20027;-71
2022/03/22 07:29:22;;;;;;;21.08;15.35;;;9.20;97.80;;;;;;5043101;28;20452;-71
2022/03/22 07:31:48;;;;;;;20.92;14.85;;;9.30;98.10;;;;;;5045410;28;20051;-71
2022/03/22 07:34:16;;;;;;;21.02;15.07;;;9.40;98.10;;;;;;5044461;28;20072;-71
2022/03/22 07:36:43;;;;;;;17.55;14.32;;;9.50;98.50;;;;;;5051207;28;20032;-71
2022/03/22 07:39:12;;;;;;;22.33;15.30;;;9.50;98.80;;;;;;5048946;28;20691;-71
2022/03/22 07:41:38;;;;;;;24.33;15.57;;;9.60;97.90;;;;;;5046374;28;20025;-72
2022/03/22 07:44:06;;;;;;;25.10;15.73;;;9.70;98.10;;;;;;5048603;28;20039;-70
2022/03/22 07:46:33;;;;;;;21.55;14.00;;;9.80;98.40;;;;;;5047608;28;20034;-71
2022/03/22 07:52:57;;;;;;;20.65;12.27;;;10.00;98.20;;;;;;5050631;28;20026;-72
2022/03/22 07:54:32;;;;;;;17.75;11.90;;;10.70;96.40;;;;;;5051984;28;20035;-70
2022/03/22 07:56:58;;;;;;;18.42;11.68;;;10.90;95.20;;;;;;5047661;28;20115;-72
2022/03/22 07:59:25;;;;;;;18.35;11.68;;;11.10;95.60;;;;;;5047213;28;20427;-72
2022/03/22 08:01:51;;;;;;;18.33;13.60;;;11.30;94.70;;;;;;5046786;28;20044;-71
2022/03/22 08:04:17;;;;;;;20.80;12.60;;;11.40;94.50;;;;;;5048059;28;20109;-70
2022/03/22 08:06:43;;;;;;;16.02;12.40;;;11.50;94.50;;;;;;5053100;28;20032;-82
2022/03/22 08:09:09;;;;;;;18.25;12.52;;;11.60;94.60;;;;;;5049957;28;20029;-73
2022/03/22 08:11:36;;;;;;;18.02;12.82;;;11.70;93.60;;;;;;5046223;28;20032;-72
2022/03/22 08:14:03;;;;;;;15.82;13.13;;;11.80;93.70;;;;;;5048052;28;20423;-73
2022/03/22 08:16:29;;;;;;;17.52;13.60;;;11.90;94.80;;;;;;5044621;28;20060;-73
2022/03/22 08:18:55;;;;;;;18.77;14.40;;;11.90;93.70;;;;;;5045375;28;20033;-73
2022/03/22 08:21:21;;;;;;;18.40;13.18;;;12.00;93.70;;;;;;5047648;28;20182;-73
2022/03/22 08:23:47;;;;;;;17.52;12.70;;;12.20;93.40;;;;;;5051036;28;20033;-73
2022/03/22 08:26:13;;;;;;;17.98;13.10;;;12.30;93.10;;;;;;5051530;28;20021;-73
2022/03/22 08:28:46;;;;;;;19.02;13.98;;;12.40;93.00;;;;;;5049260;28;20044;-73
2022/03/22 08:31:13;;;;;;;16.58;12.07;;;12.60;94.30;;;;;;5049901;28;20401;-72
2022/03/22 08:33:39;;;;;;;20.58;14.05;;;12.60;92.60;;;;;;5049591;28;20036;-73
2022/03/22 08:36:05;;;;;;;20.00;13.27;;;12.70;93.30;;;;;;5049751;28;20028;-73
2022/03/22 08:38:30;;;;;;;18.83;14.05;;;12.80;92.30;;;;;;5044513;28;20036;-74
2022/03/22 08:40:57;;;;;;;19.05;14.10;;;12.80;93.60;;;;;;5049871;28;20037;-73
2022/03/22 08:43:26;;;;;;;21.55;14.30;;;13.00;93.30;;;;;;5049856;28;20489;-73
2022/03/22 08:45:53;;;;;;;19.38;14.23;;;13.10;92.30;;;;;;5049821;28;20404;-73
2022/03/22 08:48:19;;;;;;;20.35;14.38;;;13.40;92.70;;;;;;5049086;28;20068;-73
2022/03/22 08:50:49;;;;;;;20.50;14.90;;;13.60;92.30;;;;;;5051552;28;20167;-73
2022/03/22 08:53:16;;;;;;;20.00;14.35;;;13.70;92.90;;;;;;5051328;28;20021;-73
2022/03/22 08:55:43;;;;;;;18.08;14.50;;;14.80;91.60;;;;;;5051488;28;20123;-73
2022/03/22 08:58:08;;;;;;;21.33;14.07;;;16.80;86.90;;;;;;5047353;28;20498;-73
2022/03/22 09:00:35;;;;;;;18.50;13.45;;;19.00;80.00;;;;;;5047477;28;20039;-74
2022/03/22 09:03:03;;;;;;;17.23;13.13;;;20.00;72.30;;;;;;5047618;28;20032;-73
2022/03/22 09:08:13;;;;;;;;;;;19.20;73.10;;;;;;5043264;28;20595;-73
2022/03/22 09:10:40;;;;;;;17.70;12.82;;;21.40;68.80;;;;;;5046598;28;20000;-74
2022/03/22 09:13:07;;;;;;;16.83;12.50;;;22.60;65.10;;;;;;5049543;28;20026;-74
2022/03/22 09:15:39;;;;;;;16.90;12.38;;;23.30;62.20;;;;;;5049974;28;20025;-74
2022/03/22 09:18:18;;;;;;;15.50;11.80;;;24.60;59.40;;;;;;5053826;28;20419;-74
2022/03/22 09:20:45;;;;;;;15.35;11.63;;;24.70;57.90;;;;;;5044787;28;20167;-74
2022/03/22 09:23:12;;;;;;;14.77;11.10;;;23.70;58.00;;;;;;5044571;28;20385;-74
2022/03/22 09:25:43;;;;;;;17.63;11.60;;;23.70;59.00;;;;;;5045162;28;20064;-74
2022/03/22 09:28:10;;;;;;;15.43;12.35;;;23.60;57.60;;;;;;5049170;28;20029;-73
2022/03/22 09:30:38;;;;;;;17.25;12.18;;;23.20;57.60;;;;;;5049857;28;20029;-73
2022/03/22 09:33:05;;;;;;;14.95;12.32;;;23.00;58.00;;;;;;5053507;28;20491;-74
2022/03/22 09:35:32;;;;;;;14.88;11.75;;;22.40;60.10;;;;;;5043698;28;20132;-74
2022/03/22 09:37:59;;;;;;;17.33;10.98;;;22.10;60.70;;;;;;5045065;28;20061;-73
2022/03/22 09:40:27;;;;;;;17.50;11.23;;;21.60;62.40;;;;;;5048326;28;20041;-73
2022/03/22 09:42:54;;;;;;;14.63;10.60;;;21.50;63.00;;;;;;5052584;28;20025;-74
2022/03/22 09:45:26;;;;;;;14.25;11.00;;;19.80;67.60;;;;;;5047061;28;20286;-74
2022/03/22 09:47:53;;;;;;;15.95;11.15;;;18.30;73.30;;;;;;5046114;28;20032;-73
2022/03/22 09:50:20;;;;;;;14.00;10.13;;;17.30;75.20;;;;;;5052883;28;20033;-73
2022/03/22 09:52:46;;;;;;;15.57;11.13;;;16.60;79.40;;;;;;5045993;28;20546;-73
2022/03/22 09:55:16;;;;;;;15.25;11.20;;;16.30;82.40;;;;;;5050017;28;20533;-73
2022/03/22 09:57:42;;;;;;;17.90;11.65;;;16.30;82.80;;;;;;5050881;28;20036;-74
2022/03/22 10:00:12;;;;;;;16.48;11.82;;;16.40;83.00;;;;;;5045867;28;20032;-73
2022/03/22 10:02:37;;;;;;;16.63;11.75;;;16.20;84.50;;;;;;5043596;28;20067;-73
2022/03/22 10:05:04;;;;;;;20.17;12.50;;;16.10;84.20;;;;;;5045438;28;20029;-73
2022/03/22 10:07:29;;;;;;;18.45;12.02;;;15.80;83.90;;;;;;5053990;28;20079;-73
2022/03/22 10:10:02;;;;;;;16.83;12.50;;;15.80;84.40;;;;;;5047800;28;20099;-73
2022/03/22 10:12:38;;;;;;;18.40;13.02;;;15.70;83.90;;;;;;5047959;28;20025;-73
2022/03/22 10:15:15;;;;;;;20.27;13.15;;;15.50;85.80;;;;;;5047042;28;20033;-72
2022/03/22 10:17:43;;;;;;;17.48;12.82;;;15.70;86.60;;;;;;5045401;28;20086;-73
2022/03/22 10:20:19;;;;;;;23.55;13.05;;;15.70;83.70;;;;;;5049550;28;20049;-74
2022/03/22 10:22:53;;;;;;;16.60;12.50;;;15.60;84.20;;;;;;5052438;28;20060;-73
2022/03/22 10:25:19;;;;;;;22.00;13.18;;;15.60;84.30;;;;;;5049111;28;20036;-73
2022/03/22 10:27:44;;;;;;;16.90;11.65;;;15.70;84.80;;;;;;5048117;28;20482;-73
2022/03/22 10:30:11;;;;;;;17.40;11.85;;;16.00;83.10;;;;;;5054356;28;20027;-73
2022/03/22 10:32:39;;;;;;;15.02;10.18;;;15.90;81.80;;;;;;5045250;28;20026;-73
2022/03/22 10:35:17;;;;;;;15.27;11.02;;;15.70;81.80;;;;;;5049724;28;20029;-73
2022/03/22 10:37:47;;;;;;;21.15;11.48;;;15.70;83.40;;;;;;5052768;28;20390;-73
2022/03/22 10:40:22;;;;;;;16.33;10.55;;;15.70;83.60;;;;;;5048204;28;20549;-74
2022/03/22 10:42:58;;;;;;;14.00;10.25;;;15.90;83.10;;;;;;5047168;28;20070;-73
2022/03/22 10:45:41;;;;;;;13.50;9.75;;;15.90;80.10;;;;;;5045236;28;20024;-73
2022/03/22 10:48:06;;;;;;;17.88;10.00;;;15.70;78.10;;;;;;5044949;28;20905;-73
2022/03/22 10:50:37;;;;;;;14.85;10.20;;;15.70;81.00;;;;;;5051065;28;20099;-72
2022/03/22 10:53:04;;;;;;;15.23;10.10;;;15.70;82.10;;;;;;5052096;28;20029;-73
2022/03/22 10:55:30;;;;;;;13.95;9.80;;;15.90;83.20;;;;;;5052487;28;20017;-73
2022/03/22 10:57:58;;;;;;;13.32;9.77;;;15.90;83.80;;;;;;5050567;28;20029;-73
2022/03/22 11:00:25;;;;;;;12.88;9.40;;;15.90;79.90;;;;;;5052084;28;20493;-73
2022/03/22 11:02:53;;;;;;;13.35;9.18;;;15.90;81.50;;;;;;5051991;28;20021;-73
2022/03/22 11:05:20;;;;;;;16.13;10.07;;;15.90;78.00;;;;;;5051109;28;20029;-73
2022/03/22 11:07:53;;;;;;;15.52;10.15;;;15.80;80.00;;;;;;5051631;28;20017;-73
2022/03/22 11:10:25;;;;;;;15.63;9.65;;;15.80;79.80;;;;;;5048033;28;20029;-73
2022/03/22 11:12:52;;;;;;;15.00;9.63;;;15.80;79.20;;;;;;5056161;28;20036;-73
2022/03/22 11:15:18;;;;;;;15.23;9.60;;;16.00;81.60;;;;;;5056135;28;20024;-73
2022/03/22 11:17:47;;;;;;;15.73;9.38;;;16.00;80.10;;;;;;5055205;28;20021;-73
2022/03/22 11:20:13;;;;;;;14.38;10.32;;;15.90;78.30;;;;;;5054142;28;20493;-73
2022/03/22 11:22:50;;;;;;;16.30;9.68;;;15.80;80.10;;;;;;5055998;28;20074;-73
2022/03/22 11:25:30;;;;;;;15.48;8.93;;;15.90;83.60;;;;;;5055585;28;20033;-74
2022/03/22 11:28:11;;;;;;;13.82;9.40;;;16.00;81.70;;;;;;5055748;28;20370;-74
2022/03/22 11:30:39;;;;;;;15.63;9.52;;;16.20;80.30;;;;;;5055640;28;20033;-74
2022/03/22 11:35:59;;;;;;;14.85;9.20;;;16.10;81.00;;;;;;5055904;28;20028;-74
2022/03/22 11:38:41;;;;;;;12.07;8.40;;;15.80;84.40;;;;;;5045886;28;20033;-74
2022/03/22 11:44:12;;;;;;;14.07;9.13;;;15.40;82.20;;;;;;5054883;28;20043;-74
2022/03/22 11:46:38;;;;;;;12.60;7.78;;;15.70;79.90;;;;;;5055280;28;20048;-74
2022/03/22 11:49:21;;;;;;;17.45;8.45;;;15.70;81.30;;;;;;5055053;28;20039;-74
2022/03/22 11:52:10;;;;;;;14.00;8.38;;;16.00;80.40;;;;;;5055404;28;20024;-74
2022/03/22 11:54:37;;;;;;;12.35;8.02;;;15.90;76.70;;;;;;5048873;28;20029;-73
2022/03/22 11:57:04;;;;;;;13.23;7.53;;;15.90;75.50;;;;;;5055532;28;20028;-74
2022/03/22 11:59:46;;;;;;;13.02;7.25;;;15.90;72.50;;;;;;5054033;28;20024;-73
2022/03/22 12:02:17;;;;;;;11.55;6.88;;;16.10;70.40;;;;;;5055363;28;20528;-74
2022/03/22 12:04:51;;;;;;;10.75;6.35;;;16.20;63.70;;;;;;5055117;28;20082;-73
2022/03/22 12:07:23;;;;;;;9.98;5.97;;;16.10;61.30;;;;;;5054687;28;20090;-75
2022/03/22 12:09:49;;;;;;;10.52;6.50;;;16.00;56.20;;;;;;5055732;28;20509;-75
2022/03/22 12:12:15;;;;;;;10.93;6.13;;;16.00;59.80;;;;;;5054926;28;20025;-73
2022/03/22 12:14:45;;;;;;;14.10;5.93;;;15.90;57.60;;;;;;5054296;28;20112;-73
2022/03/22 12:17:12;;;;;;;9.45;6.03;;;16.10;62.90;;;;;;5053907;28;20066;-72
2022/03/22 12:19:38;;;;;;;11.40;5.80;;;16.10;59.40;;;;;;5054460;28;20131;-73
2022/03/22 12:22:08;;;;;;;10.18;6.25;;;15.90;60.00;;;;;;5053572;28;20116;-72
2022/03/22 12:24:34;;;;;;;9.55;5.78;;;16.00;57.70;;;;;;5054673;28;20443;-73
2022/03/22 12:27:11;;;;;;;9.70;5.55;;;16.10;56.20;;;;;;5046950;28;20078;-72
2022/03/22 12:29:47;;;;;;;9.50;5.95;;;16.00;58.10;;;;;;5045471;28;20022;-72
2022/03/22 12:32:18;;;;;;;11.25;6.32;;;16.10;55.50;;;;;;5051582;28;20107;-72
2022/03/22 12:34:45;;;;;;;10.18;5.80;;;15.90;56.80;;;;;;5054824;28;20029;-72
2022/03/22 12:37:12;;;;;;;10.13;5.70;;;16.30;59.40;;;;;;5054427;28;20459;-72
2022/03/22 12:39:41;;;;;;;12.60;5.78;;;16.10;56.20;;;;;;5055234;28;20033;-73
2022/03/22 12:42:09;;;;;;;10.95;5.60;;;16.10;62.40;;;;;;5048441;28;20043;-72
2022/03/22 12:44:36;;;;;;;9.68;5.53;;;16.10;61.40;;;;;;5045198;28;20045;-72
2022/03/22 12:47:04;;;;;;;11.27;5.90;;;16.40;58.60;;;;;;5050225;28;20434;-72
2022/03/22 12:49:34;;;;;;;9.07;5.55;;;16.20;59.40;;;;;;5051307;28;20121;-73
2022/03/22 12:52:01;;;;;;;11.48;5.32;;;16.20;57.80;;;;;;5046836;28;20502;-72
2022/03/22 12:54:35;;;;;;;11.60;5.60;;;16.20;57.80;;;;;;5050105;28;20021;-72
2022/03/22 12:57:05;;;;;;;13.80;5.85;;;16.20;57.00;;;;;;5046919;28;20025;-73
2022/03/22 12:59:30;;;;;;;10.63;5.88;;;16.20;54.50;;;;;;5052897;28;20090;-72
2022/03/22 13:01:58;;;;;;;11.85;5.80;;;16.40;55.10;;;;;;5050776;28;20428;-75
2022/03/22 13:04:30;;;;;;;9.98;5.80;;;16.60;56.80;;;;;;5049375;28;20117;-75
2022/03/22 13:07:01;;;;;;;45.90;27.40;;;16.70;56.60;;;;;;5050816;28;20561;-76
2022/03/22 13:12:14;;;;;;;12.93;6.70;;;16.40;60.00;;;;;;5054087;28;20074;-74